createdAt,value
2022-11-27T00:06:29.941Z,90
2022-11-27T00:35:46.441Z,93
2022-11-27T01:05:08.857Z,93
2022-11-27T01:34:34.333Z,93
2022-11-27T02:03:57.366Z,92
2022-11-27T02:33:16.415Z,91
2022-11-27T03:02:38.784Z,92
2022-11-27T03:31:45.294Z,89
2022-11-27T04:00:48.977Z,87
2022-11-27T04:30:06.923Z,90
2022-11-27T04:59:16.574Z,89
2022-11-27T05:28:27.619Z,89
2022-11-27T05:57:02.458Z,90
2022-11-27T06:26:17.405Z,89
2022-11-27T06:54:56.742Z,89
2022-11-27T07:24:05.475Z,91
2022-11-27T07:53:06.356Z,92
2022-11-27T08:22:22.322Z,92
2022-11-27T08:51:37.281Z,91
2022-11-27T09:20:55.241Z,90
2022-11-27T09:50:09.794Z,90
2022-11-27T10:19:24.757Z,87
2022-11-27T10:48:42.514Z,87
2022-11-27T11:17:57.446Z,88
2022-11-27T11:47:12.799Z,88
2022-11-27T12:16:07.109Z,88
2022-11-27T12:45:16.333Z,88
2022-11-27T13:14:20.459Z,88
2022-11-27T13:43:34.534Z,87
2022-11-27T14:12:43.730Z,87
2022-11-27T14:41:49.027Z,86
2022-11-27T15:10:30.732Z,86
2022-11-27T15:39:37.636Z,87
2022-11-27T16:08:46.211Z,87
2022-11-27T16:37:50.910Z,88
2022-11-27T17:07:01.620Z,87
2022-11-27T17:36:03.034Z,88
2022-11-27T18:05:09.608Z,88
2022-11-27T18:34:21.487Z,89
2022-11-27T19:03:43.864Z,88
2022-11-27T19:32:27.840Z,86
2022-11-27T20:01:45.041Z,87
2022-11-27T20:30:21.200Z,87
2022-11-27T20:59:28.864Z,87
2022-11-27T21:28:35.430Z,88
2022-11-27T21:57:19.304Z,88
2022-11-27T22:26:18.006Z,86
2022-11-27T22:55:26.436Z,87
2022-11-27T23:24:33.140Z,87
2022-11-27T23:53:30.820Z,88
